createdAt,value
2023-02-06T00:00:45.448Z,27.38
2023-02-06T00:03:20.804Z,25.20
2023-02-06T00:06:03.845Z,26.88
2023-02-06T00:08:55.905Z,28.45
2023-02-06T00:11:53.211Z,20.83
2023-02-06T00:14:29.611Z,17.83
2023-02-06T00:20:01.673Z,13.93
2023-02-06T00:22:34.219Z,17.05
2023-02-06T00:25:07.466Z,14.65
2023-02-06T00:27:47.456Z,14.40
2023-02-06T00:30:20.932Z,16.52
2023-02-06T00:32:57.047Z,16.77
2023-02-06T00:35:26.580Z,14.77
2023-02-06T00:38:06.234Z,16.25
2023-02-06T00:40:53.742Z,14.80
2023-02-06T00:43:43.983Z,14.95
2023-02-06T00:56:20.552Z,12.93
2023-02-06T00:58:52.501Z,12.88
2023-02-06T01:01:31.622Z,12.70
2023-02-06T01:04:06.945Z,12.85
2023-02-06T01:10:16.264Z,10.75
2023-02-06T01:16:38.917Z,9.35
2023-02-06T01:22:13.667Z,10.38
2023-02-06T01:25:30.755Z,11.20
2023-02-06T01:40:14.290Z,8.52
2023-02-06T01:43:34.608Z,9.15
2023-02-06T01:46:09.093Z,8.77
2023-02-06T01:49:01.772Z,10.38
2023-02-06T01:51:37.545Z,9.40
2023-02-06T01:54:09.418Z,9.77
2023-02-06T01:56:56.390Z,9.80
2023-02-06T02:08:58.485Z,9.57
2023-02-06T02:11:50.544Z,8.52
2023-02-06T02:14:54.819Z,8.00
2023-02-06T02:18:31.779Z,8.77
2023-02-06T02:21:55.439Z,7.80
2023-02-06T02:24:52.183Z,7.85
2023-02-06T02:27:57.513Z,9.30
2023-02-06T02:30:48.590Z,6.30
2023-02-06T02:33:43.512Z,8.43
2023-02-06T02:39:44.435Z,9.52
2023-02-06T02:43:02.082Z,9.13
2023-02-06T02:46:00.500Z,8.07
2023-02-06T02:48:36.314Z,8.05
2023-02-06T02:51:26.233Z,9.13
2023-02-06T02:55:52.468Z,8.90
2023-02-06T02:57:32.855Z,8.02
2023-02-06T03:00:22.390Z,5.57
2023-02-06T03:03:09.594Z,7.95
2023-02-06T03:06:15.491Z,8.10
2023-02-06T03:17:12.548Z,8.15
2023-02-06T03:20:26.356Z,7.57
2023-02-06T03:23:03.904Z,7.63
2023-02-06T03:26:17.688Z,7.07
2023-02-06T03:29:01.308Z,8.27
2023-02-06T03:31:36.587Z,7.50
2023-02-06T03:34:23.670Z,9.68
2023-02-06T03:36:52.520Z,8.50
2023-02-06T03:39:20.471Z,7.55
2023-02-06T03:41:48.664Z,7.30
2023-02-06T03:44:24.921Z,7.80
2023-02-06T03:46:54.631Z,7.60
2023-02-06T03:49:30.610Z,8.20
2023-02-06T03:52:14.131Z,7.88
2023-02-06T03:54:52.239Z,7.22
2023-02-06T03:57:22.097Z,8.18
2023-02-06T03:59:49.860Z,7.60
2023-02-06T04:02:17.556Z,9.10
2023-02-06T04:04:45.795Z,8.68
2023-02-06T04:07:31.104Z,9.65
2023-02-06T04:12:25.388Z,9.38
2023-02-06T04:14:52.741Z,10.85
2023-02-06T04:17:38.527Z,10.60
2023-02-06T04:20:07.299Z,9.60
2023-02-06T04:22:34.179Z,10.10
2023-02-06T04:25:01.157Z,11.07
2023-02-06T04:27:30.557Z,13.93
2023-02-06T04:29:57.619Z,11.57
2023-02-06T04:32:24.764Z,10.73
2023-02-06T04:34:53.843Z,14.18
2023-02-06T04:37:21.382Z,13.10
2023-02-06T04:39:48.437Z,14.32
2023-02-06T04:42:15.470Z,13.40
2023-02-06T04:44:42.370Z,11.50
2023-02-06T04:47:09.309Z,12.20
2023-02-06T04:49:36.197Z,14.70
2023-02-06T04:52:03.134Z,13.02
2023-02-06T04:54:32.434Z,13.73
2023-02-06T04:56:59.605Z,12.13
2023-02-06T04:59:26.854Z,11.95
2023-02-06T05:01:53.807Z,13.00
2023-02-06T05:04:20.698Z,11.65
2023-02-06T05:06:47.552Z,11.80
2023-02-06T05:09:14.405Z,8.98
2023-02-06T05:11:41.304Z,13.75
2023-02-06T05:14:08.330Z,10.20
2023-02-06T05:16:35.294Z,11.40
2023-02-06T05:19:02.093Z,11.85
2023-02-06T05:21:29.134Z,11.18
2023-02-06T05:23:55.997Z,8.75
2023-02-06T05:26:22.891Z,10.18
2023-02-06T05:28:52.740Z,10.65
2023-02-06T05:31:20.351Z,10.82
2023-02-06T05:33:52.696Z,11.23
2023-02-06T05:36:26.024Z,10.35
2023-02-06T05:38:53.288Z,12.75
2023-02-06T05:41:20.355Z,11.73
2023-02-06T05:43:47.331Z,11.88
2023-02-06T05:46:14.540Z,11.35
2023-02-06T05:48:42.941Z,13.18
2023-02-06T05:51:11.311Z,14.40
2023-02-06T05:53:38.618Z,11.82
2023-02-06T05:56:06.006Z,11.25
2023-02-06T05:58:33.338Z,11.57
2023-02-06T06:01:00.841Z,11.20
2023-02-06T06:03:28.066Z,13.75
2023-02-06T06:05:55.564Z,13.40
2023-02-06T06:08:22.979Z,13.98
2023-02-06T06:10:51.463Z,16.05
2023-02-06T06:13:19.394Z,14.70
2023-02-06T06:15:46.315Z,11.45
2023-02-06T06:18:13.270Z,15.38
2023-02-06T06:20:41.472Z,16.55
2023-02-06T06:23:08.440Z,14.55
2023-02-06T06:25:36.605Z,14.45
2023-02-06T06:28:03.914Z,15.82
2023-02-06T06:30:31.116Z,15.13
2023-02-06T06:32:58.042Z,14.65
2023-02-06T06:35:26.074Z,16.30
2023-02-06T06:37:52.916Z,16.23
2023-02-06T06:40:19.805Z,14.65
2023-02-06T06:42:46.858Z,13.40
2023-02-06T06:45:13.724Z,13.73
2023-02-06T06:47:40.543Z,15.23
2023-02-06T06:50:07.477Z,14.00
2023-02-06T06:52:34.666Z,16.75
2023-02-06T06:55:01.696Z,15.52
2023-02-06T06:57:32.375Z,14.02
2023-02-06T06:59:59.479Z,15.32
2023-02-06T07:02:29.981Z,20.33
2023-02-06T07:04:57.085Z,21.55
2023-02-06T07:07:35.543Z,17.63
2023-02-06T07:10:02.576Z,19.55
2023-02-06T07:12:29.641Z,18.35
2023-02-06T07:14:56.461Z,16.08
2023-02-06T07:17:23.473Z,18.52
2023-02-06T07:19:53.989Z,20.48
2023-02-06T07:22:21.733Z,18.15
2023-02-06T07:24:48.900Z,19.40
2023-02-06T07:27:16.207Z,18.42
2023-02-06T07:29:58.652Z,19.80
2023-02-06T07:32:31.931Z,18.25
2023-02-06T07:35:01.449Z,16.77
2023-02-06T07:37:28.748Z,20.42
2023-02-06T07:39:55.829Z,19.80
2023-02-06T07:42:27.656Z,22.25
2023-02-06T07:45:06.346Z,16.67
2023-02-06T07:47:46.972Z,17.20
2023-02-06T07:50:27.859Z,17.38
2023-02-06T07:53:01.487Z,19.17
2023-02-06T07:55:43.857Z,18.60
2023-02-06T07:58:55.023Z,19.30
2023-02-06T08:04:15.237Z,19.98
2023-02-06T08:07:12.884Z,19.33
2023-02-06T08:09:39.962Z,19.02
2023-02-06T08:12:07.710Z,25.48
2023-02-06T08:14:38.116Z,21.90
2023-02-06T08:17:19.798Z,20.05
2023-02-06T08:19:56.368Z,21.92
2023-02-06T08:22:53.411Z,20.35
2023-02-06T08:28:12.371Z,21.45
2023-02-06T08:30:39.407Z,19.50
2023-02-06T08:33:07.442Z,21.60
2023-02-06T08:35:43.812Z,19.77
2023-02-06T08:38:10.916Z,19.60
2023-02-06T08:40:44.827Z,20.73
2023-02-06T08:43:33.025Z,19.88
2023-02-06T08:46:00.205Z,18.52
2023-02-06T08:48:27.236Z,18.63
2023-02-06T08:51:34.498Z,18.60
2023-02-06T08:54:28.006Z,17.90
2023-02-06T08:59:59.273Z,18.25
2023-02-06T09:02:46.435Z,18.10
2023-02-06T09:05:15.502Z,19.73
2023-02-06T09:07:51.127Z,19.80
2023-02-06T09:10:27.145Z,21.38
2023-02-06T09:12:55.242Z,19.52
2023-02-06T09:15:22.696Z,20.42
2023-02-06T09:17:50.122Z,22.45
2023-02-06T09:20:17.683Z,19.77
2023-02-06T09:22:44.927Z,21.50
2023-02-06T09:25:11.938Z,20.50
2023-02-06T09:27:38.848Z,20.52
2023-02-06T09:30:06.306Z,19.70
2023-02-06T09:32:33.421Z,20.80
2023-02-06T09:35:01.354Z,19.35
2023-02-06T09:37:28.500Z,20.30
2023-02-06T09:39:55.545Z,19.15
2023-02-06T09:42:36.025Z,21.10
2023-02-06T09:45:20.378Z,20.08
2023-02-06T09:47:51.678Z,20.25
2023-02-06T09:50:25.284Z,21.17
2023-02-06T09:53:14.043Z,21.55
2023-02-06T09:55:46.769Z,20.27
2023-02-06T09:58:26.171Z,21.50
2023-02-06T10:01:04.468Z,20.70
2023-02-06T10:03:50.422Z,20.60
2023-02-06T10:06:23.034Z,20.67
2023-02-06T10:08:58.988Z,20.85
2023-02-06T10:11:41.676Z,21.33
2023-02-06T10:14:42.728Z,20.20
2023-02-06T10:17:21.798Z,20.67
2023-02-06T10:19:58.247Z,17.52
2023-02-06T10:22:31.731Z,20.17
2023-02-06T10:25:24.562Z,17.40
2023-02-06T10:27:57.649Z,20.73
2023-02-06T10:30:56.901Z,18.30
2023-02-06T10:33:43.694Z,18.63
2023-02-06T10:36:30.812Z,18.15
2023-02-06T10:39:46.043Z,17.13
2023-02-06T10:42:23.862Z,16.52
2023-02-06T10:45:17.183Z,16.10
2023-02-06T10:47:57.095Z,17.98
2023-02-06T10:50:38.217Z,18.48
2023-02-06T10:53:22.820Z,16.88
2023-02-06T10:56:13.701Z,13.57
2023-02-06T10:58:42.079Z,16.77
2023-02-06T11:01:25.164Z,17.08
2023-02-06T11:04:40.312Z,18.95
2023-02-06T11:07:16.817Z,16.98
2023-02-06T11:09:44.782Z,17.75
2023-02-06T11:12:26.329Z,17.83
2023-02-06T11:14:57.231Z,21.60
2023-02-06T11:17:28.494Z,19.25
2023-02-06T11:20:15.340Z,21.15
2023-02-06T11:22:52.330Z,19.13
2023-02-06T11:25:30.258Z,20.25
2023-02-06T11:27:59.876Z,18.55
2023-02-06T11:30:35.830Z,20.02
2023-02-06T11:33:09.412Z,19.73
2023-02-06T11:35:52.145Z,18.13
2023-02-06T11:38:29.693Z,16.70
2023-02-06T11:41:01.618Z,16.55
2023-02-06T11:43:47.126Z,16.13
2023-02-06T11:46:19.477Z,17.85
2023-02-06T11:48:48.280Z,17.20
2023-02-06T11:51:17.313Z,18.33
2023-02-06T11:54:04.572Z,17.25
2023-02-06T11:56:32.377Z,17.55
2023-02-06T11:59:21.597Z,18.58
2023-02-06T12:01:49.034Z,17.63
2023-02-06T12:04:32.457Z,18.98
2023-02-06T12:07:06.554Z,18.40
2023-02-06T12:09:33.674Z,17.40
2023-02-06T12:12:22.471Z,18.38
2023-02-06T12:15:07.321Z,18.70
2023-02-06T12:17:57.766Z,19.50
2023-02-06T12:20:34.947Z,20.00
2023-02-06T12:23:05.992Z,21.80
2023-02-06T12:25:43.515Z,20.25
2023-02-06T12:28:32.840Z,17.70
2023-02-06T12:31:08.592Z,19.60
2023-02-06T12:33:53.431Z,21.25
2023-02-06T12:36:27.644Z,21.90
2023-02-06T12:39:19.727Z,21.83
2023-02-06T12:42:26.992Z,20.65
2023-02-06T12:45:24.919Z,20.75
2023-02-06T12:48:19.480Z,21.95
2023-02-06T12:50:55.386Z,22.45
2023-02-06T12:53:40.304Z,20.95
2023-02-06T12:56:22.999Z,14.73
2023-02-06T12:59:11.172Z,19.98
2023-02-06T13:02:12.155Z,19.35
2023-02-06T13:04:39.785Z,16.98
2023-02-06T13:07:13.598Z,17.33
2023-02-06T13:09:55.728Z,15.32
2023-02-06T13:12:28.853Z,15.25
2023-02-06T13:14:58.222Z,14.73
2023-02-06T13:17:25.277Z,16.80
2023-02-06T13:20:13.026Z,17.48
2023-02-06T13:23:15.006Z,16.98
2023-02-06T13:25:52.031Z,14.98
2023-02-06T13:28:22.240Z,15.15
2023-02-06T13:30:50.891Z,15.27
2023-02-06T13:33:21.487Z,14.45
2023-02-06T13:35:59.224Z,14.75
2023-02-06T13:38:38.681Z,14.27
2023-02-06T13:41:15.084Z,14.02
2023-02-06T13:44:12.068Z,14.93
2023-02-06T13:47:08.353Z,13.73
2023-02-06T13:49:47.418Z,13.82
2023-02-06T13:52:44.658Z,13.82
2023-02-06T13:55:34.922Z,13.57
2023-02-06T13:58:50.899Z,13.18
2023-02-06T14:01:26.471Z,12.30
2023-02-06T14:03:55.311Z,14.43
2023-02-06T14:06:44.964Z,14.85
2023-02-06T14:09:30.915Z,14.65
2023-02-06T14:12:44.658Z,14.25
2023-02-06T14:15:21.672Z,13.75
2023-02-06T14:18:18.347Z,13.80
2023-02-06T14:21:00.404Z,13.48
2023-02-06T14:23:30.315Z,14.25
2023-02-06T14:26:06.687Z,15.90
2023-02-06T14:28:52.219Z,14.20
2023-02-06T14:31:48.361Z,14.40
2023-02-06T14:34:30.967Z,13.32
2023-02-06T14:37:14.190Z,13.85
2023-02-06T14:39:47.250Z,13.57
2023-02-06T14:42:28.428Z,13.30
2023-02-06T14:45:14.955Z,12.40
2023-02-06T14:47:43.558Z,12.60
2023-02-06T14:50:25.116Z,13.40
2023-02-06T14:53:04.053Z,11.20
2023-02-06T14:55:36.766Z,12.15
2023-02-06T14:58:05.595Z,13.05
2023-02-06T15:00:33.818Z,12.85
2023-02-06T15:03:15.441Z,11.40
2023-02-06T15:05:42.778Z,11.35
2023-02-06T15:08:18.067Z,11.45
2023-02-06T15:10:45.494Z,11.55
2023-02-06T15:13:35.121Z,13.75
2023-02-06T15:16:08.230Z,11.38
2023-02-06T15:18:36.129Z,11.48
2023-02-06T15:21:09.079Z,11.30
2023-02-06T15:24:01.163Z,11.25
2023-02-06T15:27:01.167Z,11.57
2023-02-06T15:29:29.059Z,10.95
2023-02-06T15:32:06.519Z,11.65
2023-02-06T15:34:33.947Z,10.60
2023-02-06T15:37:00.969Z,10.88
2023-02-06T15:39:28.233Z,10.13
2023-02-06T15:41:55.439Z,10.27
2023-02-06T15:44:22.595Z,11.60
2023-02-06T15:46:54.784Z,10.25
2023-02-06T15:49:43.776Z,10.30
2023-02-06T15:52:31.606Z,9.80
2023-02-06T15:54:59.848Z,11.13
2023-02-06T15:57:32.874Z,11.52
2023-02-06T16:00:00.285Z,12.20
2023-02-06T16:02:35.066Z,13.40
2023-02-06T16:05:04.187Z,11.82
2023-02-06T16:07:35.757Z,11.55
2023-02-06T16:10:04.351Z,12.02
2023-02-06T16:12:42.552Z,10.82
2023-02-06T16:15:28.116Z,12.15
2023-02-06T16:17:56.522Z,10.65
2023-02-06T16:20:32.593Z,11.27
2023-02-06T16:23:18.714Z,11.55
2023-02-06T16:25:48.960Z,11.38
2023-02-06T16:28:23.136Z,12.40
2023-02-06T16:31:01.776Z,9.73
2023-02-06T16:33:40.032Z,11.65
2023-02-06T16:36:08.070Z,13.63
2023-02-06T16:38:35.215Z,11.80
2023-02-06T16:41:02.287Z,13.75
2023-02-06T16:43:30.856Z,12.32
2023-02-06T16:46:00.613Z,12.10
2023-02-06T16:48:27.928Z,11.00
2023-02-06T16:50:54.986Z,11.57
2023-02-06T16:53:24.571Z,11.50
2023-02-06T16:55:52.126Z,12.15
2023-02-06T16:58:24.421Z,13.77
2023-02-06T17:00:51.917Z,15.13
2023-02-06T17:03:18.923Z,13.23
2023-02-06T17:05:47.741Z,13.70
2023-02-06T17:08:22.906Z,15.07
2023-02-06T17:10:50.590Z,13.55
2023-02-06T17:13:22.761Z,11.73
2023-02-06T17:15:53.149Z,11.52
2023-02-06T17:18:21.966Z,12.80
2023-02-06T17:20:52.817Z,12.45
2023-02-06T17:23:20.571Z,12.43
2023-02-06T17:25:47.879Z,12.43
2023-02-06T17:28:17.775Z,11.75
2023-02-06T17:30:46.354Z,11.80
2023-02-06T17:33:13.608Z,12.40
2023-02-06T17:35:40.697Z,12.60
2023-02-06T17:38:09.615Z,12.63
2023-02-06T17:40:38.557Z,12.60
2023-02-06T17:43:07.283Z,13.00
2023-02-06T17:45:37.519Z,17.75
2023-02-06T17:48:05.477Z,15.38
2023-02-06T17:50:32.515Z,16.85
2023-02-06T17:53:01.789Z,17.48
2023-02-06T17:55:29.147Z,15.90
2023-02-06T17:57:56.441Z,17.13
2023-02-06T18:00:25.441Z,15.85
2023-02-06T18:02:53.739Z,17.52
2023-02-06T18:05:22.847Z,18.58
2023-02-06T18:07:51.695Z,17.83
2023-02-06T18:10:21.211Z,16.90
2023-02-06T18:12:48.452Z,20.77
2023-02-06T18:15:16.326Z,15.98
2023-02-06T18:17:43.421Z,16.33
2023-02-06T18:20:12.270Z,16.40
2023-02-06T18:22:42.441Z,15.30
2023-02-06T18:25:12.054Z,15.60
2023-02-06T18:27:40.659Z,16.50
2023-02-06T18:30:08.726Z,15.50
2023-02-06T18:32:37.985Z,16.55
2023-02-06T18:35:06.608Z,16.27
2023-02-06T18:37:33.879Z,16.50
2023-02-06T18:40:01.054Z,18.90
2023-02-06T18:42:46.902Z,17.65
2023-02-06T18:45:14.785Z,18.83
2023-02-06T18:47:42.493Z,16.77
2023-02-06T18:50:10.834Z,15.98
2023-02-06T18:52:39.483Z,16.80
2023-02-06T18:55:10.693Z,16.55
2023-02-06T18:57:38.001Z,18.35
2023-02-06T19:00:10.337Z,18.17
2023-02-06T19:02:37.511Z,18.33
2023-02-06T19:05:04.858Z,17.30
2023-02-06T19:07:32.002Z,19.23
2023-02-06T19:10:01.358Z,17.77
2023-02-06T19:12:29.667Z,18.67
2023-02-06T19:14:58.332Z,17.50
2023-02-06T19:17:28.830Z,17.10
2023-02-06T19:19:56.839Z,17.25
2023-02-06T19:22:24.817Z,17.45
2023-02-06T19:24:53.358Z,16.75
2023-02-06T19:27:21.523Z,16.63
2023-02-06T19:29:49.648Z,17.27
2023-02-06T19:32:16.814Z,15.85
2023-02-06T19:34:45.477Z,16.42
2023-02-06T19:37:13.713Z,15.65
2023-02-06T19:39:43.581Z,15.75
2023-02-06T19:42:11.709Z,15.45
2023-02-06T19:44:38.940Z,15.75
2023-02-06T19:47:06.248Z,15.25
2023-02-06T19:49:33.861Z,15.27
2023-02-06T19:52:01.715Z,15.43
2023-02-06T19:54:29.021Z,15.63
2023-02-06T19:56:56.810Z,15.82
2023-02-06T19:59:27.302Z,14.55
2023-02-06T20:02:00.275Z,14.25
2023-02-06T20:04:34.983Z,33.58
2023-02-06T20:07:03.311Z,25.02
2023-02-06T20:09:30.939Z,22.58
2023-02-06T20:11:58.483Z,21.92
2023-02-06T20:14:28.180Z,20.65
2023-02-06T20:16:55.993Z,19.17
2023-02-06T20:19:26.732Z,19.13
2023-02-06T20:21:56.941Z,20.50
2023-02-06T20:24:26.615Z,18.98
2023-02-06T20:26:57.249Z,20.83
2023-02-06T20:29:32.766Z,19.55
2023-02-06T20:32:01.353Z,18.42
2023-02-06T20:34:28.888Z,17.63
2023-02-06T20:36:56.300Z,18.10
2023-02-06T20:39:23.701Z,16.48
2023-02-06T20:41:51.045Z,18.17
2023-02-06T20:44:19.898Z,17.88
2023-02-06T20:46:47.598Z,17.40
2023-02-06T20:49:22.522Z,18.95
2023-02-06T20:51:50.452Z,18.05
2023-02-06T20:54:18.989Z,18.95
2023-02-06T20:56:46.421Z,18.13
2023-02-06T20:59:17.204Z,18.00
2023-02-06T21:01:45.383Z,17.20
2023-02-06T21:04:14.178Z,18.13
2023-02-06T21:06:42.308Z,18.45
2023-02-06T21:09:10.611Z,19.17
2023-02-06T21:11:44.548Z,19.75
2023-02-06T21:14:12.796Z,15.17
2023-02-06T21:16:40.083Z,19.15
2023-02-06T21:19:10.057Z,18.63
2023-02-06T21:21:37.871Z,19.60
2023-02-06T21:24:05.522Z,19.23
2023-02-06T21:26:32.985Z,18.77
2023-02-06T21:29:02.463Z,19.67
2023-02-06T21:31:37.766Z,18.63
2023-02-06T21:34:16.645Z,19.63
2023-02-06T21:36:47.425Z,20.45
2023-02-06T21:39:20.935Z,20.92
2023-02-06T21:41:51.815Z,21.20
2023-02-06T21:44:19.009Z,21.15
2023-02-06T21:46:46.200Z,20.88
2023-02-06T21:49:13.316Z,21.15
2023-02-06T21:51:40.503Z,21.02
2023-02-06T21:54:09.088Z,20.30
2023-02-06T21:56:41.007Z,20.02
2023-02-06T21:59:08.588Z,20.80
2023-02-06T22:01:36.348Z,20.27
2023-02-06T22:04:04.234Z,21.45
2023-02-06T22:06:32.242Z,21.38
2023-02-06T22:09:07.603Z,23.40
2023-02-06T22:11:39.670Z,22.85
2023-02-06T22:14:12.330Z,21.73
2023-02-06T22:16:39.430Z,23.20
2023-02-06T22:19:07.118Z,22.42
2023-02-06T22:21:35.297Z,23.45
2023-02-06T22:24:06.795Z,20.58
2023-02-06T22:26:38.822Z,24.27
2023-02-06T22:29:08.997Z,23.38
2023-02-06T22:31:37.001Z,22.90
2023-02-06T22:34:06.249Z,23.35
2023-02-06T22:36:37.218Z,23.23
2023-02-06T22:39:07.894Z,24.13
2023-02-06T22:41:44.873Z,22.30
2023-02-06T22:44:17.065Z,24.85
2023-02-06T22:46:47.297Z,25.10
2023-02-06T22:49:14.876Z,24.80
2023-02-06T22:51:42.187Z,27.90
2023-02-06T22:54:13.867Z,25.35
2023-02-06T22:56:42.490Z,24.67
2023-02-06T22:59:22.601Z,26.25
2023-02-06T23:01:56.366Z,26.58
2023-02-06T23:04:30.391Z,27.27
2023-02-06T23:06:57.927Z,19.67
2023-02-06T23:09:31.906Z,24.98
2023-02-06T23:12:00.034Z,20.53
2023-02-06T23:14:30.287Z,23.88
2023-02-06T23:16:59.452Z,24.77
2023-02-06T23:19:27.151Z,25.92
2023-02-06T23:21:54.713Z,24.95
2023-02-06T23:24:21.853Z,25.50
2023-02-06T23:26:50.831Z,24.45
2023-02-06T23:29:19.590Z,25.52
2023-02-06T23:31:47.652Z,25.65
2023-02-06T23:34:16.682Z,25.60
2023-02-06T23:36:44.659Z,24.50
2023-02-06T23:39:12.531Z,24.77
2023-02-06T23:41:40.156Z,25.15
2023-02-06T23:44:08.821Z,25.20
2023-02-06T23:46:38.286Z,25.55
2023-02-06T23:49:07.019Z,27.08
2023-02-06T23:51:35.412Z,25.95
2023-02-06T23:54:02.781Z,26.55
2023-02-06T23:56:31.502Z,26.67
2023-02-06T23:59:00.122Z,25.70
